sensor_id;sensor_type;location;lat;lon;timestamp;P1;P2;P0
73832;PMS7003;62179;48.444;-4.464;2022-12-07T06:28:29;26.75;20.25;13.50
73832;PMS7003;62179;48.444;-4.464;2022-12-07T06:30:58;28.25;22.25;12.50
73832;PMS7003;62179;48.444;-4.464;2022-12-07T06:33:25;21.00;17.00;11.00
73832;PMS7003;62179;48.444;-4.464;2022-12-07T06:35:50;28.50;27.25;19.25
73832;PMS7003;62179;48.444;-4.464;2022-12-07T06:38:16;40.50;33.00;17.25
73832;PMS7003;62179;48.444;-4.464;2022-12-07T06:40:41;46.00;32.50;20.75
73832;PMS7003;62179;48.444;-4.464;2022-12-07T06:43:07;31.50;27.50;16.00
73832;PMS7003;62179;48.444;-4.464;2022-12-07T06:45:32;39.00;30.75;20.50
73832;PMS7003;62179;48.444;-4.464;2022-12-07T06:47:58;37.50;28.25;20.00
73832;PMS7003;62179;48.444;-4.464;2022-12-07T06:50:23;26.75;24.50;16.25
73832;PMS7003;62179;48.444;-4.464;2022-12-07T06:52:50;35.75;26.25;17.75
73832;PMS7003;62179;48.444;-4.464;2022-12-07T06:55:16;30.25;26.00;16.00
73832;PMS7003;62179;48.444;-4.464;2022-12-07T06:57:41;31.25;29.00;17.00
73832;PMS7003;62179;48.444;-4.464;2022-12-07T07:00:07;29.25;22.00;14.00
73832;PMS7003;62179;48.444;-4.464;2022-12-07T07:02:33;18.25;17.75;13.25
73832;PMS7003;62179;48.444;-4.464;2022-12-07T07:04:58;23.25;20.50;13.50
73832;PMS7003;62179;48.444;-4.464;2022-12-07T07:07:24;24.00;20.50;13.00
73832;PMS7003;62179;48.444;-4.464;2022-12-07T07:09:49;24.75;21.50;14.25
73832;PMS7003;62179;48.444;-4.464;2022-12-07T07:12:15;13.50;12.75;6.00
73832;PMS7003;62179;48.444;-4.464;2022-12-07T07:14:40;20.25;18.25;11.25
73832;PMS7003;62179;48.444;-4.464;2022-12-07T07:17:06;20.75;18.25;12.75
73832;PMS7003;62179;48.444;-4.464;2022-12-07T07:19:32;16.00;14.25;9.50
73832;PMS7003;62179;48.444;-4.464;2022-12-07T07:21:57;18.50;16.25;10.50
73832;PMS7003;62179;48.444;-4.464;2022-12-07T07:24:22;12.50;12.50;10.50
73832;PMS7003;62179;48.444;-4.464;2022-12-07T07:26:48;23.00;17.00;11.75
73832;PMS7003;62179;48.444;-4.464;2022-12-07T07:29:13;16.75;16.50;11.25
73832;PMS7003;62179;48.444;-4.464;2022-12-07T07:31:39;19.00;14.50;11.25
73832;PMS7003;62179;48.444;-4.464;2022-12-07T07:34:04;18.25;15.75;11.00
73832;PMS7003;62179;48.444;-4.464;2022-12-07T07:36:29;45.25;41.75;28.75
73832;PMS7003;62179;48.444;-4.464;2022-12-07T07:38:55;61.75;48.00;30.75
73832;PMS7003;62179;48.444;-4.464;2022-12-07T07:41:20;30.50;28.00;17.00
73832;PMS7003;62179;48.444;-4.464;2022-12-07T07:43:45;24.00;19.75;15.00
73832;PMS7003;62179;48.444;-4.464;2022-12-07T07:46:11;28.50;21.75;15.25
73832;PMS7003;62179;48.444;-4.464;2022-12-07T07:48:36;22.75;19.50;13.50
73832;PMS7003;62179;48.444;-4.464;2022-12-07T07:51:04;29.75;23.00;14.00
73832;PMS7003;62179;48.444;-4.464;2022-12-07T07:53:31;23.75;20.75;14.50
73832;PMS7003;62179;48.444;-4.464;2022-12-07T07:55:57;25.25;16.75;10.75
73832;PMS7003;62179;48.444;-4.464;2022-12-07T07:58:23;22.25;19.75;13.00
73832;PMS7003;62179;48.444;-4.464;2022-12-07T08:00:48;24.00;21.75;15.00
73832;PMS7003;62179;48.444;-4.464;2022-12-07T08:03:14;24.75;22.25;15.50
73832;PMS7003;62179;48.444;-4.464;2022-12-07T08:05:40;36.25;29.00;17.50
73832;PMS7003;62179;48.444;-4.464;2022-12-07T08:08:06;36.75;29.00;18.50
73832;PMS7003;62179;48.444;-4.464;2022-12-07T08:10:31;43.00;35.25;24.75
73832;PMS7003;62179;48.444;-4.464;2022-12-07T08:12:57;35.25;30.75;21.00
73832;PMS7003;62179;48.444;-4.464;2022-12-07T08:15:45;42.00;36.00;21.50
73832;PMS7003;62179;48.444;-4.464;2022-12-07T08:18:12;31.00;28.00;18.00
73832;PMS7003;62179;48.444;-4.464;2022-12-07T08:20:39;36.00;28.50;18.00
73832;PMS7003;62179;48.444;-4.464;2022-12-07T08:23:06;30.00;21.75;15.25
73832;PMS7003;62179;48.444;-4.464;2022-12-07T08:25:32;32.50;30.50;18.50
73832;PMS7003;62179;48.444;-4.464;2022-12-07T08:27:58;32.50;28.50;18.00
73832;PMS7003;62179;48.444;-4.464;2022-12-07T08:30:27;27.75;24.00;18.25
73832;PMS7003;62179;48.444;-4.464;2022-12-07T08:32:53;30.50;26.25;19.25
73832;PMS7003;62179;48.444;-4.464;2022-12-07T08:35:19;28.00;26.00;16.75
73832;PMS7003;62179;48.444;-4.464;2022-12-07T08:37:44;30.00;23.50;17.25
73832;PMS7003;62179;48.444;-4.464;2022-12-07T08:40:10;29.25;26.50;17.75
73832;PMS7003;62179;48.444;-4.464;2022-12-07T08:42:40;26.00;23.75;17.00
73832;PMS7003;62179;48.444;-4.464;2022-12-07T08:45:09;25.25;22.50;16.00
73832;PMS7003;62179;48.444;-4.464;2022-12-07T08:47:37;29.75;27.25;20.00
73832;PMS7003;62179;48.444;-4.464;2022-12-07T08:50:07;31.00;24.50;18.00
73832;PMS7003;62179;48.444;-4.464;2022-12-07T08:52:34;26.75;24.00;18.00
73832;PMS7003;62179;48.444;-4.464;2022-12-07T08:55:01;30.00;26.00;18.50
73832;PMS7003;62179;48.444;-4.464;2022-12-07T08:57:28;30.50;24.25;18.00
73832;PMS7003;62179;48.444;-4.464;2022-12-07T08:59:54;25.50;23.50;15.50
73832;PMS7003;62179;48.444;-4.464;2022-12-07T09:02:20;31.25;27.50;17.00
73832;PMS7003;62179;48.444;-4.464;2022-12-07T09:04:46;24.50;23.00;17.25
73832;PMS7003;62179;48.444;-4.464;2022-12-07T09:07:11;27.75;23.25;14.50
73832;PMS7003;62179;48.444;-4.464;2022-12-07T09:09:37;29.25;21.75;13.00
73832;PMS7003;62179;48.444;-4.464;2022-12-07T09:12:03;25.50;22.50;16.00
73832;PMS7003;62179;48.444;-4.464;2022-12-07T09:14:28;22.75;19.50;15.00
73832;PMS7003;62179;48.444;-4.464;2022-12-07T09:16:54;14.50;12.00;5.25
73832;PMS7003;62179;48.444;-4.464;2022-12-07T09:19:19;23.25;19.50;13.25
73832;PMS7003;62179;48.444;-4.464;2022-12-07T09:21:45;26.00;23.00;17.00
73832;PMS7003;62179;48.444;-4.464;2022-12-07T09:24:17;24.50;22.50;16.25
73832;PMS7003;62179;48.444;-4.464;2022-12-07T09:26:43;26.75;19.50;14.25
73832;PMS7003;62179;48.444;-4.464;2022-12-07T09:29:09;22.75;21.00;13.50
73832;PMS7003;62179;48.444;-4.464;2022-12-07T09:31:38;22.00;21.75;14.25
73832;PMS7003;62179;48.444;-4.464;2022-12-07T09:34:03;21.25;18.00;13.00
73832;PMS7003;62179;48.444;-4.464;2022-12-07T09:36:30;22.00;19.50;15.00
73832;PMS7003;62179;48.444;-4.464;2022-12-07T09:38:56;21.00;19.25;13.75
73832;PMS7003;62179;48.444;-4.464;2022-12-07T09:41:24;25.50;22.25;16.00
73832;PMS7003;62179;48.444;-4.464;2022-12-07T09:43:52;20.25;19.00;14.75
73832;PMS7003;62179;48.444;-4.464;2022-12-07T09:46:22;18.25;17.00;12.25
73832;PMS7003;62179;48.444;-4.464;2022-12-07T09:48:48;27.00;21.00;14.00
73832;PMS7003;62179;48.444;-4.464;2022-12-07T09:53:45;20.00;16.25;9.00
73832;PMS7003;62179;48.444;-4.464;2022-12-07T09:56:24;22.50;20.00;13.75
73832;PMS7003;62179;48.444;-4.464;2022-12-07T10:02:42;24.25;22.75;15.50
73832;PMS7003;62179;48.444;-4.464;2022-12-07T10:29:18;24.50;20.75;14.25
73832;PMS7003;62179;48.444;-4.464;2022-12-07T10:31:52;21.00;18.50;15.00
73832;PMS7003;62179;48.444;-4.464;2022-12-07T10:34:30;23.25;20.50;12.00
73832;PMS7003;62179;48.444;-4.464;2022-12-07T10:37:14;23.25;19.25;13.75
73832;PMS7003;62179;48.444;-4.464;2022-12-07T10:39:46;17.50;15.50;9.75
73832;PMS7003;62179;48.444;-4.464;2022-12-07T10:42:24;20.00;20.00;12.75
73832;PMS7003;62179;48.444;-4.464;2022-12-07T10:56:25;24.50;19.50;13.25
73832;PMS7003;62179;48.444;-4.464;2022-12-07T11:01:24;21.50;17.00;11.75
73832;PMS7003;62179;48.444;-4.464;2022-12-07T11:04:03;21.00;16.50;12.00
73832;PMS7003;62179;48.444;-4.464;2022-12-07T11:09:50;23.25;17.50;11.75
73832;PMS7003;62179;48.444;-4.464;2022-12-07T11:18:28;22.00;21.00;13.50
73832;PMS7003;62179;48.444;-4.464;2022-12-07T11:21:10;19.50;17.75;11.00
73832;PMS7003;62179;48.444;-4.464;2022-12-07T11:23:59;23.25;20.25;14.00
73832;PMS7003;62179;48.444;-4.464;2022-12-07T11:37:55;23.25;18.50;11.25
73832;PMS7003;62179;48.444;-4.464;2022-12-07T11:40:32;20.00;17.25;12.00
73832;PMS7003;62179;48.444;-4.464;2022-12-07T11:45:30;18.25;16.00;12.00
73832;PMS7003;62179;48.444;-4.464;2022-12-07T11:48:02;19.50;16.00;11.00
73832;PMS7003;62179;48.444;-4.464;2022-12-07T11:53:02;23.25;13.75;9.50
73832;PMS7003;62179;48.444;-4.464;2022-12-07T11:55:59;16.25;16.25;11.75
73832;PMS7003;62179;48.444;-4.464;2022-12-07T12:03:54;18.00;16.25;9.25
73832;PMS7003;62179;48.444;-4.464;2022-12-07T12:06:25;15.75;13.00;9.00
73832;PMS7003;62179;48.444;-4.464;2022-12-07T12:08:54;16.25;12.00;7.00
73832;PMS7003;62179;48.444;-4.464;2022-12-07T12:11:47;20.75;15.50;11.25
73832;PMS7003;62179;48.444;-4.464;2022-12-07T12:17:22;16.25;13.50;9.00
73832;PMS7003;62179;48.444;-4.464;2022-12-07T12:22:45;16.50;12.00;8.00
73832;PMS7003;62179;48.444;-4.464;2022-12-07T12:25:23;15.00;11.50;7.50
73832;PMS7003;62179;48.444;-4.464;2022-12-07T12:27:52;14.25;13.00;8.50
73832;PMS7003;62179;48.444;-4.464;2022-12-07T12:32:52;22.00;18.00;11.75
73832;PMS7003;62179;48.444;-4.464;2022-12-07T12:35:38;15.00;12.50;8.50
73832;PMS7003;62179;48.444;-4.464;2022-12-07T12:40:52;11.50;11.00;8.75
73832;PMS7003;62179;48.444;-4.464;2022-12-07T13:18:03;16.50;12.75;8.75
73832;PMS7003;62179;48.444;-4.464;2022-12-07T13:20:48;16.50;12.00;9.75
73832;PMS7003;62179;48.444;-4.464;2022-12-07T13:26:09;14.00;11.00;7.00
73832;PMS7003;62179;48.444;-4.464;2022-12-07T13:38:25;14.25;12.25;8.00
73832;PMS7003;62179;48.444;-4.464;2022-12-07T13:41:04;14.25;12.75;10.00
73832;PMS7003;62179;48.444;-4.464;2022-12-07T13:43:50;16.75;16.00;9.00
73832;PMS7003;62179;48.444;-4.464;2022-12-07T13:46:30;15.50;13.25;8.50
73832;PMS7003;62179;48.444;-4.464;2022-12-07T13:49:49;15.75;13.75;9.25
73832;PMS7003;62179;48.444;-4.464;2022-12-07T13:54:55;16.75;13.25;8.25
73832;PMS7003;62179;48.444;-4.464;2022-12-07T13:57:27;18.75;14.25;9.00
73832;PMS7003;62179;48.444;-4.464;2022-12-07T14:00:03;18.00;15.00;9.50
73832;PMS7003;62179;48.444;-4.464;2022-12-07T14:02:59;16.25;14.25;9.00
73832;PMS7003;62179;48.444;-4.464;2022-12-07T14:08:35;16.00;14.00;11.25
73832;PMS7003;62179;48.444;-4.464;2022-12-07T14:11:03;16.50;14.00;12.00
73832;PMS7003;62179;48.444;-4.464;2022-12-07T14:13:33;18.00;15.75;10.25
73832;PMS7003;62179;48.444;-4.464;2022-12-07T14:16:22;22.75;18.00;10.25
73832;PMS7003;62179;48.444;-4.464;2022-12-07T14:18:53;20.50;16.75;11.75
73832;PMS7003;62179;48.444;-4.464;2022-12-07T14:21:20;24.25;22.00;12.50
73832;PMS7003;62179;48.444;-4.464;2022-12-07T14:24:33;20.50;16.75;11.50
73832;PMS7003;62179;48.444;-4.464;2022-12-07T14:26:44;22.50;17.50;9.00
73832;PMS7003;62179;48.444;-4.464;2022-12-07T14:31:46;17.25;14.00;8.75
73832;PMS7003;62179;48.444;-4.464;2022-12-07T14:34:12;15.25;12.50;7.75
73832;PMS7003;62179;48.444;-4.464;2022-12-07T14:36:38;13.25;12.25;7.50
73832;PMS7003;62179;48.444;-4.464;2022-12-07T14:39:03;25.25;15.50;8.00
73832;PMS7003;62179;48.444;-4.464;2022-12-07T14:41:31;12.25;12.25;8.25
73832;PMS7003;62179;48.444;-4.464;2022-12-07T14:44:26;33.50;32.75;22.00
73832;PMS7003;62179;48.444;-4.464;2022-12-07T14:47:19;43.75;40.00;26.00
73832;PMS7003;62179;48.444;-4.464;2022-12-07T14:49:48;35.25;31.75;24.50
73832;PMS7003;62179;48.444;-4.464;2022-12-07T14:52:23;15.00;13.75;9.75
73832;PMS7003;62179;48.444;-4.464;2022-12-07T15:35:19;24.75;20.00;14.25
73832;PMS7003;62179;48.444;-4.464;2022-12-07T15:42:09;20.75;16.25;11.25
73832;PMS7003;62179;48.444;-4.464;2022-12-07T15:55:57;16.50;16.25;11.75
73832;PMS7003;62179;48.444;-4.464;2022-12-07T16:06:19;25.75;21.00;15.25
73832;PMS7003;62179;48.444;-4.464;2022-12-07T16:09:23;31.00;21.75;17.25
73832;PMS7003;62179;48.444;-4.464;2022-12-07T16:16:07;22.00;20.75;16.00
73832;PMS7003;62179;48.444;-4.464;2022-12-07T16:19:21;30.25;23.25;17.00
73832;PMS7003;62179;48.444;-4.464;2022-12-07T16:40:50;34.50;28.75;18.50
73832;PMS7003;62179;48.444;-4.464;2022-12-07T16:47:27;32.25;25.00;16.75
73832;PMS7003;62179;48.444;-4.464;2022-12-07T16:57:44;33.25;30.75;19.25
73832;PMS7003;62179;48.444;-4.464;2022-12-07T17:08:53;39.25;29.25;20.00
73832;PMS7003;62179;48.444;-4.464;2022-12-07T17:23:13;29.00;25.50;18.00
73832;PMS7003;62179;48.444;-4.464;2022-12-07T18:03:05;41.25;35.50;21.50
73832;PMS7003;62179;48.444;-4.464;2022-12-07T18:13:30;63.25;50.00;34.00
73832;PMS7003;62179;48.444;-4.464;2022-12-07T18:23:37;66.25;53.75;35.00
73832;PMS7003;62179;48.444;-4.464;2022-12-07T18:36:32;44.50;38.50;25.75
73832;PMS7003;62179;48.444;-4.464;2022-12-07T18:52:59;36.00;33.75;22.75
73832;PMS7003;62179;48.444;-4.464;2022-12-07T18:56:21;43.00;34.00;25.75
73832;PMS7003;62179;48.444;-4.464;2022-12-07T18:58:49;39.75;35.25;25.00
73832;PMS7003;62179;48.444;-4.464;2022-12-07T20:05:21;22.00;21.75;14.00
73832;PMS7003;62179;48.444;-4.464;2022-12-07T20:29:32;33.75;27.75;19.75
73832;PMS7003;62179;48.444;-4.464;2022-12-07T20:46:41;39.75;36.50;26.00
73832;PMS7003;62179;48.444;-4.464;2022-12-07T20:53:31;39.50;34.00;23.50
73832;PMS7003;62179;48.444;-4.464;2022-12-07T22:33:12;10.00;10.00;7.00
73832;PMS7003;62179;48.444;-4.464;2022-12-07T22:39:40;22.75;19.75;14.75
